createdAt,value
2024-01-19T00:02:18.830Z,88.13
2024-01-19T00:04:46.179Z,88.42
2024-01-19T00:07:14.070Z,88.04
2024-01-19T00:09:41.105Z,88.14
2024-01-19T00:12:08.451Z,88.23
2024-01-19T00:14:35.876Z,88.27
2024-01-19T00:17:03.037Z,88.25
2024-01-19T00:19:30.040Z,88.20
2024-01-19T00:21:57.263Z,87.83
2024-01-19T00:24:24.477Z,87.84
2024-01-19T00:26:52.533Z,87.94
2024-01-19T00:29:19.761Z,88.00
2024-01-19T00:31:48.449Z,88.34
2024-01-19T00:34:17.227Z,88.30
2024-01-19T00:36:44.824Z,88.45
2024-01-19T00:39:12.078Z,88.13
2024-01-19T00:41:39.550Z,88.22
2024-01-19T00:44:06.812Z,88.26
2024-01-19T00:46:34.046Z,88.11
2024-01-19T00:49:01.400Z,88.27
2024-01-19T00:51:28.838Z,88.08
2024-01-19T00:53:56.165Z,88.16
2024-01-19T00:56:23.673Z,87.99
2024-01-19T00:58:50.985Z,87.90
2024-01-19T01:01:18.274Z,88.16
2024-01-19T01:03:46.070Z,87.88
2024-01-19T01:06:13.364Z,87.99
2024-01-19T01:08:40.910Z,88.44
2024-01-19T01:11:10.213Z,88.15
2024-01-19T01:13:37.683Z,87.66
2024-01-19T01:16:05.119Z,88.42
2024-01-19T01:18:32.348Z,88.12
2024-01-19T01:20:59.661Z,87.87
2024-01-19T01:23:27.164Z,88.08
2024-01-19T01:25:54.598Z,87.96
2024-01-19T01:28:21.830Z,88.12
2024-01-19T01:30:49.095Z,88.27
2024-01-19T01:33:17.000Z,88.07
2024-01-19T01:35:44.681Z,88.15
2024-01-19T01:38:13.037Z,87.73
2024-01-19T01:40:40.289Z,87.99
2024-01-19T01:43:07.937Z,87.89
2024-01-19T01:45:35.495Z,88.15
2024-01-19T01:48:03.523Z,87.73
2024-01-19T01:50:31.434Z,87.81
2024-01-19T01:52:59.183Z,87.78
2024-01-19T01:55:26.893Z,87.91
2024-01-19T01:57:54.457Z,88.01
2024-01-19T02:04:06.094Z,88.09
2024-01-19T02:06:54.663Z,87.64
2024-01-19T02:09:55.750Z,87.68
2024-01-19T02:12:53.707Z,87.58
2024-01-19T02:16:01.716Z,87.51
2024-01-19T02:18:49.883Z,87.41
2024-01-19T02:21:50.177Z,87.60
2024-01-19T02:24:20.317Z,87.67
2024-01-19T02:27:47.183Z,87.70
2024-01-19T02:31:14.077Z,87.47
2024-01-19T02:34:41.413Z,86.99
2024-01-19T02:37:40.842Z,86.68
2024-01-19T02:40:57.421Z,86.46
2024-01-19T02:44:22.376Z,86.35
2024-01-19T02:47:49.568Z,86.54
2024-01-19T02:50:45.698Z,86.26
2024-01-19T02:54:12.842Z,85.81
2024-01-19T02:57:44.134Z,86.37
2024-01-19T03:01:11.179Z,86.03
2024-01-19T03:04:58.044Z,86.29
2024-01-19T03:08:30.461Z,86.53
2024-01-19T03:12:01.832Z,86.68
2024-01-19T03:15:48.613Z,86.49
2024-01-19T03:19:35.493Z,86.67
2024-01-19T03:23:06.078Z,86.09
2024-01-19T03:26:33.491Z,86.37
2024-01-19T03:30:00.609Z,86.67
2024-01-19T03:33:28.015Z,86.59
2024-01-19T03:37:14.572Z,86.43
2024-01-19T03:40:41.499Z,86.40
2024-01-19T03:43:51.317Z,86.63
2024-01-19T03:47:38.319Z,85.98
2024-01-19T03:51:09.041Z,86.52
2024-01-19T03:54:37.159Z,86.26
2024-01-19T03:58:27.295Z,86.45
2024-01-19T04:02:00.945Z,86.23
2024-01-19T04:05:48.403Z,86.64
2024-01-19T04:09:35.184Z,86.45
2024-01-19T04:13:02.683Z,86.42
2024-01-19T04:16:49.441Z,86.08
2024-01-19T04:20:36.646Z,86.47
2024-01-19T04:24:23.359Z,86.07
2024-01-19T04:27:51.126Z,86.13
2024-01-19T04:30:59.564Z,86.37
2024-01-19T04:34:46.470Z,85.89
2024-01-19T04:38:26.884Z,85.96
2024-01-19T04:42:13.674Z,86.18
2024-01-19T04:46:00.786Z,86.14
2024-01-19T04:49:29.143Z,85.73
2024-01-19T04:52:59.237Z,85.55
2024-01-19T04:56:37.975Z,85.40
2024-01-19T05:00:04.855Z,85.76
2024-01-19T05:03:51.814Z,85.78
2024-01-19T05:07:18.676Z,85.26
2024-01-19T05:10:46.152Z,85.77
2024-01-19T05:14:13.446Z,85.90
2024-01-19T05:18:00.324Z,85.38
2024-01-19T05:21:35.934Z,85.59
2024-01-19T05:25:03.397Z,85.93
2024-01-19T05:28:53.164Z,85.73
2024-01-19T05:32:22.619Z,85.71
2024-01-19T05:35:49.865Z,85.72
2024-01-19T05:39:16.770Z,85.47
2024-01-19T05:43:05.908Z,85.48
2024-01-19T05:46:51.690Z,85.61
2024-01-19T05:50:38.612Z,85.50
2024-01-19T05:54:25.303Z,85.72
2024-01-19T05:58:12.652Z,84.89
2024-01-19T06:01:59.518Z,85.19
2024-01-19T06:05:49.541Z,85.05
2024-01-19T06:09:36.518Z,84.78
2024-01-19T06:17:08.290Z,84.67
2024-01-19T06:20:55.369Z,84.70
2024-01-19T06:24:42.693Z,84.58
2024-01-19T06:28:30.271Z,84.47
2024-01-19T06:32:17.368Z,84.76
2024-01-19T06:36:05.241Z,84.47
2024-01-19T06:39:52.701Z,84.28
2024-01-19T06:43:39.855Z,84.74
2024-01-19T06:47:28.880Z,84.64
2024-01-19T06:51:16.196Z,84.76
2024-01-19T06:55:03.029Z,84.76
2024-01-19T06:58:49.971Z,84.53
2024-01-19T07:02:37.129Z,84.49
2024-01-19T07:06:29.892Z,84.42
2024-01-19T07:10:16.861Z,84.63
2024-01-19T07:14:03.601Z,84.60
2024-01-19T07:17:51.935Z,84.30
2024-01-19T07:21:26.247Z,84.45
2024-01-19T07:25:13.289Z,84.47
2024-01-19T07:29:03.465Z,84.09
2024-01-19T07:33:01.318Z,84.18
2024-01-19T07:36:38.539Z,84.48
2024-01-19T07:40:06.156Z,84.32
2024-01-19T07:43:54.507Z,84.03
2024-01-19T07:51:08.458Z,84.13
2024-01-19T07:54:35.933Z,84.61
2024-01-19T07:58:22.858Z,83.98
2024-01-19T08:02:09.723Z,83.85
2024-01-19T08:05:56.987Z,83.86
2024-01-19T08:09:43.756Z,84.02
2024-01-19T08:13:14.132Z,83.60
2024-01-19T08:17:01.904Z,84.10
2024-01-19T08:20:48.981Z,84.20
2024-01-19T08:24:35.801Z,83.81
2024-01-19T08:28:23.187Z,83.40
2024-01-19T08:32:14.703Z,83.72
2024-01-19T08:36:02.260Z,83.20
2024-01-19T08:39:49.285Z,83.60
2024-01-19T08:43:36.495Z,82.58
2024-01-19T08:46:26.648Z,82.54
2024-01-19T08:49:57.174Z,83.01
2024-01-19T08:53:26.108Z,83.04
2024-01-19T08:56:38.748Z,83.18
2024-01-19T08:59:08.222Z,83.28
2024-01-19T09:01:35.805Z,83.03
2024-01-19T09:04:03.338Z,83.03
2024-01-19T09:06:31.146Z,82.78
2024-01-19T09:09:02.784Z,82.92
2024-01-19T09:11:30.859Z,82.91
2024-01-19T09:13:58.300Z,82.55
2024-01-19T09:16:25.559Z,82.84
2024-01-19T09:18:53.144Z,82.85
2024-01-19T09:21:20.887Z,82.88
2024-01-19T09:23:48.118Z,82.74
2024-01-19T09:26:22.536Z,82.48
2024-01-19T09:28:51.862Z,82.42
2024-01-19T09:31:19.333Z,82.88
2024-01-19T09:33:47.167Z,82.86
2024-01-19T09:36:15.192Z,82.84
2024-01-19T09:38:44.652Z,82.53
2024-01-19T09:41:33.989Z,82.27
2024-01-19T09:44:03.654Z,82.46
2024-01-19T09:46:31.104Z,82.92
2024-01-19T09:49:21.625Z,82.40
2024-01-19T09:52:12.606Z,82.94
2024-01-19T09:54:41.759Z,82.93
2024-01-19T09:57:08.899Z,82.97
2024-01-19T09:59:36.130Z,81.88
2024-01-19T10:02:03.942Z,82.10
2024-01-19T10:04:31.540Z,81.94
2024-01-19T10:06:58.913Z,81.34
2024-01-19T10:09:26.575Z,81.29
2024-01-19T10:11:55.769Z,81.57
2024-01-19T10:14:33.328Z,82.01
2024-01-19T10:17:02.689Z,81.95
2024-01-19T10:19:32.816Z,81.88
2024-01-19T10:22:29.499Z,81.57
2024-01-19T10:25:09.895Z,81.78
2024-01-19T10:27:54.696Z,81.37
2024-01-19T10:30:31.649Z,80.50
2024-01-19T10:33:08.885Z,81.08
2024-01-19T10:35:41.455Z,81.21
2024-01-19T10:38:11.163Z,81.24
2024-01-19T10:40:38.335Z,80.66
2024-01-19T10:43:08.594Z,80.96
2024-01-19T10:45:39.981Z,80.89
2024-01-19T10:48:08.811Z,81.18
2024-01-19T10:50:36.807Z,81.24
2024-01-19T10:53:14.080Z,80.91
2024-01-19T10:55:49.993Z,80.87
2024-01-19T10:58:21.625Z,80.35
2024-01-19T11:00:48.844Z,81.13
2024-01-19T11:03:18.825Z,80.97
2024-01-19T11:05:49.031Z,81.82
2024-01-19T11:08:16.453Z,81.11
2024-01-19T11:10:48.887Z,81.06
2024-01-19T11:13:19.733Z,79.68
2024-01-19T11:15:50.821Z,79.89
2024-01-19T11:18:18.330Z,80.36
2024-01-19T11:20:46.375Z,79.96
2024-01-19T11:23:14.681Z,80.46
2024-01-19T11:26:01.360Z,80.44
2024-01-19T11:28:51.793Z,80.55
2024-01-19T11:31:34.439Z,80.36
2024-01-19T11:34:02.683Z,80.66
2024-01-19T11:36:45.295Z,80.32
2024-01-19T11:39:15.531Z,80.49
2024-01-19T11:41:46.238Z,80.87
2024-01-19T11:44:44.852Z,80.84
2024-01-19T11:47:38.214Z,81.41
2024-01-19T11:50:07.665Z,80.49
2024-01-19T11:52:43.311Z,80.40
2024-01-19T11:55:34.098Z,80.02
2024-01-19T11:58:26.618Z,80.56
2024-01-19T12:00:59.744Z,79.75
2024-01-19T12:03:28.938Z,80.18
2024-01-19T12:06:02.203Z,79.94
2024-01-19T12:08:32.679Z,79.90
2024-01-19T12:11:12.900Z,80.18
2024-01-19T12:13:49.168Z,79.95
2024-01-19T12:16:27.297Z,79.88
2024-01-19T12:18:59.040Z,79.88
2024-01-19T12:21:30.061Z,79.63
2024-01-19T12:23:59.079Z,79.99
2024-01-19T12:26:29.169Z,79.23
2024-01-19T12:28:59.076Z,79.37
2024-01-19T12:31:38.666Z,79.14
2024-01-19T12:34:17.541Z,79.61
2024-01-19T12:36:47.644Z,79.38
2024-01-19T12:39:19.269Z,79.49
2024-01-19T12:42:11.732Z,79.08
2024-01-19T12:44:39.100Z,78.74
2024-01-19T12:47:06.651Z,79.00
2024-01-19T12:49:40.175Z,79.21
2024-01-19T12:52:13.420Z,79.29
2024-01-19T12:54:46.579Z,79.67
2024-01-19T12:57:20.643Z,79.46
2024-01-19T13:00:13.319Z,79.20
2024-01-19T13:02:43.297Z,78.81
2024-01-19T13:05:21.602Z,79.22
2024-01-19T13:07:53.497Z,79.39
2024-01-19T13:10:23.573Z,79.59
2024-01-19T13:13:04.755Z,79.55
2024-01-19T13:15:35.728Z,79.59
2024-01-19T13:18:19.762Z,78.94
2024-01-19T13:20:47.261Z,79.49
2024-01-19T13:23:15.082Z,78.96
2024-01-19T13:25:56.759Z,79.41
2024-01-19T13:28:24.066Z,79.26
2024-01-19T13:30:51.713Z,79.32
2024-01-19T13:34:19.650Z,79.70
2024-01-19T13:38:06.974Z,79.64
2024-01-19T13:41:55.493Z,79.72
2024-01-19T13:45:43.267Z,79.50
2024-01-19T13:49:31.093Z,79.87
2024-01-19T13:53:18.693Z,79.14
2024-01-19T13:57:06.389Z,79.49
2024-01-19T14:00:56.812Z,79.31
2024-01-19T14:04:44.569Z,79.83
2024-01-19T14:08:33.853Z,79.78
2024-01-19T14:12:22.720Z,80.03
2024-01-19T14:16:13.504Z,79.35
2024-01-19T14:20:01.293Z,79.86
2024-01-19T14:23:51.251Z,79.99
2024-01-19T14:27:41.702Z,80.03
2024-01-19T14:31:29.532Z,79.64
2024-01-19T14:35:17.896Z,79.91
2024-01-19T14:39:05.905Z,79.79
2024-01-19T14:42:59.997Z,80.11
2024-01-19T14:46:45.371Z,79.93
2024-01-19T14:50:39.052Z,80.10
2024-01-19T14:54:26.900Z,79.60
2024-01-19T14:58:14.700Z,80.01
2024-01-19T15:02:02.863Z,80.31
2024-01-19T15:05:50.798Z,80.13
2024-01-19T15:09:38.590Z,80.18
2024-01-19T15:13:26.687Z,80.45
2024-01-19T15:17:17.428Z,80.71
2024-01-19T15:21:06.870Z,80.84
2024-01-19T15:24:54.653Z,80.76
2024-01-19T15:28:43.646Z,80.66
2024-01-19T15:32:35.784Z,80.81
2024-01-19T15:36:22.742Z,80.52
2024-01-19T15:40:11.335Z,80.84
2024-01-19T15:43:07.804Z,80.97
2024-01-19T15:46:55.103Z,80.96
2024-01-19T15:50:20.526Z,81.15
2024-01-19T15:53:36.696Z,81.09
2024-01-19T15:56:39.281Z,81.40
2024-01-19T16:00:26.813Z,81.41
2024-01-19T16:04:17.603Z,81.41
2024-01-19T16:08:05.365Z,81.59
2024-01-19T16:11:53.309Z,82.14
2024-01-19T16:15:41.279Z,81.81
2024-01-19T16:19:29.199Z,82.03
2024-01-19T16:23:17.083Z,82.04
2024-01-19T16:27:05.066Z,82.39
2024-01-19T16:30:53.450Z,82.10
2024-01-19T16:34:41.576Z,82.46
2024-01-19T16:38:32.166Z,82.77
2024-01-19T16:42:23.660Z,82.92
2024-01-19T16:46:12.468Z,82.94
2024-01-19T16:50:03.176Z,83.49
2024-01-19T16:53:50.983Z,83.28
2024-01-19T16:57:41.590Z,83.93
2024-01-19T17:01:30.795Z,83.86
2024-01-19T17:05:18.968Z,83.76
2024-01-19T17:09:07.780Z,84.33
2024-01-19T17:12:57.015Z,83.99
2024-01-19T17:16:25.757Z,84.32
2024-01-19T17:20:13.228Z,84.41
2024-01-19T17:24:09.375Z,84.24
2024-01-19T17:27:57.253Z,84.31
2024-01-19T17:31:46.468Z,84.01
2024-01-19T17:35:34.837Z,84.24
2024-01-19T17:39:30.452Z,84.04
2024-01-19T17:43:16.648Z,83.84
2024-01-19T17:47:10.503Z,84.05
2024-01-19T17:50:58.634Z,84.21
2024-01-19T17:54:46.753Z,83.85
2024-01-19T17:58:35.212Z,83.79
2024-01-19T18:02:24.369Z,83.88
2024-01-19T18:06:12.015Z,83.83
2024-01-19T18:10:05.299Z,83.53
2024-01-19T18:13:54.551Z,83.90
2024-01-19T18:17:44.698Z,83.87
2024-01-19T18:21:47.129Z,83.48
2024-01-19T18:25:39.975Z,83.82
2024-01-19T18:29:27.618Z,83.79
2024-01-19T18:33:17.772Z,83.53
2024-01-19T18:37:06.919Z,83.64
2024-01-19T18:44:41.615Z,83.71
2024-01-19T18:48:29.355Z,83.46
2024-01-19T18:52:17.615Z,83.77
2024-01-19T18:56:05.515Z,83.64
2024-01-19T18:59:53.892Z,83.42
2024-01-19T19:03:44.052Z,83.25
2024-01-19T19:06:19.141Z,83.44
2024-01-19T19:08:51.398Z,83.40
2024-01-19T19:11:19.901Z,83.40
2024-01-19T19:13:49.465Z,83.42
2024-01-19T19:16:26.356Z,83.20
2024-01-19T19:19:02.907Z,83.08
2024-01-19T19:21:30.176Z,83.10
2024-01-19T19:23:58.153Z,83.06
2024-01-19T19:26:25.441Z,82.95
2024-01-19T19:28:55.623Z,82.85
2024-01-19T19:31:22.794Z,83.20
2024-01-19T19:33:49.757Z,83.10
2024-01-19T19:36:16.920Z,83.05
2024-01-19T19:38:45.789Z,82.93
2024-01-19T19:41:14.056Z,82.91
2024-01-19T19:43:41.902Z,83.14
2024-01-19T19:46:15.354Z,82.97
2024-01-19T19:48:43.883Z,82.95
2024-01-19T19:51:11.563Z,82.63
2024-01-19T19:53:39.279Z,82.67
2024-01-19T19:56:09.405Z,82.66
2024-01-19T19:58:39.370Z,82.94
2024-01-19T20:01:11.094Z,82.55
2024-01-19T20:03:40.342Z,82.86
2024-01-19T20:06:10.974Z,82.66
2024-01-19T20:08:38.053Z,82.66
2024-01-19T20:11:07.472Z,82.62
2024-01-19T20:13:35.155Z,82.74
2024-01-19T20:16:02.526Z,83.00
2024-01-19T20:18:31.405Z,82.95
2024-01-19T20:20:59.441Z,83.02
2024-01-19T20:23:27.265Z,83.03
2024-01-19T20:25:54.744Z,82.96
2024-01-19T20:28:22.684Z,83.01
2024-01-19T20:30:49.944Z,83.05
2024-01-19T20:33:18.024Z,82.93
2024-01-19T20:35:46.421Z,83.02
2024-01-19T20:38:14.351Z,83.19
2024-01-19T20:40:42.572Z,82.91
2024-01-19T20:43:10.777Z,82.90
2024-01-19T20:45:41.225Z,83.00
2024-01-19T20:48:08.461Z,83.00
2024-01-19T20:50:35.541Z,83.13
2024-01-19T20:53:05.149Z,82.80
2024-01-19T20:55:32.689Z,82.80
2024-01-19T20:58:01.772Z,83.09
2024-01-19T21:00:30.168Z,83.06
2024-01-19T21:02:57.731Z,83.37
2024-01-19T21:05:25.158Z,83.36
2024-01-19T21:07:55.588Z,83.19
2024-01-19T21:10:27.156Z,83.16
2024-01-19T21:12:56.604Z,83.12
2024-01-19T21:15:26.096Z,83.32
2024-01-19T21:17:55.077Z,83.21
2024-01-19T21:20:24.695Z,83.46
2024-01-19T21:22:53.583Z,83.32
2024-01-19T21:25:22.053Z,83.51
2024-01-19T21:27:49.497Z,83.24
2024-01-19T21:30:17.065Z,83.68
2024-01-19T21:32:44.327Z,83.49
2024-01-19T21:35:11.906Z,83.49
2024-01-19T21:37:40.056Z,83.42
2024-01-19T21:40:12.276Z,83.63
2024-01-19T21:42:45.788Z,83.57
2024-01-19T21:45:15.039Z,83.40
2024-01-19T21:47:44.134Z,83.44
2024-01-19T21:50:12.172Z,83.55
2024-01-19T21:52:40.457Z,83.36
2024-01-19T21:55:08.459Z,83.41
2024-01-19T21:57:36.837Z,83.30
2024-01-19T22:00:04.855Z,83.38
2024-01-19T22:02:32.555Z,83.51
2024-01-19T22:05:01.165Z,83.57
2024-01-19T22:07:28.434Z,83.54
2024-01-19T22:09:59.784Z,83.34
2024-01-19T22:12:27.129Z,83.25
2024-01-19T22:14:54.305Z,83.28
2024-01-19T22:17:21.935Z,83.14
2024-01-19T22:19:50.294Z,83.51
2024-01-19T22:22:17.639Z,83.38
2024-01-19T22:24:44.798Z,83.19
2024-01-19T22:27:11.983Z,83.28
2024-01-19T22:29:39.877Z,83.75
2024-01-19T22:32:07.435Z,83.37
2024-01-19T22:34:34.784Z,83.83
2024-01-19T22:37:02.639Z,83.43
2024-01-19T22:39:30.320Z,83.68
2024-01-19T22:41:58.400Z,83.47
2024-01-19T22:44:25.813Z,83.59
2024-01-19T22:46:53.351Z,83.69
2024-01-19T22:49:21.059Z,83.39
2024-01-19T22:51:48.394Z,83.69
2024-01-19T22:54:15.630Z,84.02
2024-01-19T22:56:43.115Z,83.56
2024-01-19T22:59:10.876Z,83.74
2024-01-19T23:01:38.135Z,83.67
2024-01-19T23:04:05.898Z,83.50
2024-01-19T23:06:33.193Z,83.46
2024-01-19T23:09:01.046Z,83.68
2024-01-19T23:11:29.712Z,83.53
2024-01-19T23:13:57.509Z,83.73
2024-01-19T23:16:24.725Z,83.93
2024-01-19T23:18:52.474Z,83.69
2024-01-19T23:21:20.020Z,83.90
2024-01-19T23:23:47.665Z,83.83
2024-01-19T23:26:15.115Z,83.69
2024-01-19T23:28:43.089Z,84.00
2024-01-19T23:31:13.662Z,83.93
2024-01-19T23:33:41.461Z,83.70
2024-01-19T23:36:12.091Z,83.60
2024-01-19T23:38:40.314Z,83.85
2024-01-19T23:41:07.690Z,83.93
2024-01-19T23:43:35.345Z,83.93
2024-01-19T23:46:03.068Z,83.92
2024-01-19T23:48:30.238Z,83.62
2024-01-19T23:50:57.449Z,83.89
2024-01-19T23:53:24.769Z,83.53
2024-01-19T23:55:51.986Z,83.61
2024-01-19T23:58:19.029Z,83.33
